sensor_id;sensor_type;location;lat;lon;timestamp;P1;durP1;ratioP1;P2;durP2;ratioP2
72369;SDS011;60343;-32.030;115.880;2023-03-03T00:00:32;5.00;;;0.70;;
72369;SDS011;60343;-32.030;115.880;2023-03-03T00:03:07;4.03;;;1.02;;
72369;SDS011;60343;-32.030;115.880;2023-03-03T00:05:44;3.28;;;0.80;;
72369;SDS011;60343;-32.030;115.880;2023-03-03T00:08:18;4.63;;;0.90;;
72369;SDS011;60343;-32.030;115.880;2023-03-03T00:10:59;3.20;;;0.60;;
72369;SDS011;60343;-32.030;115.880;2023-03-03T00:13:37;3.92;;;0.55;;
72369;SDS011;60343;-32.030;115.880;2023-03-03T00:16:20;2.92;;;0.60;;
72369;SDS011;60343;-32.030;115.880;2023-03-03T00:18:56;2.67;;;0.60;;
72369;SDS011;60343;-32.030;115.880;2023-03-03T00:21:31;2.90;;;0.80;;
72369;SDS011;60343;-32.030;115.880;2023-03-03T00:24:19;2.85;;;0.80;;
72369;SDS011;60343;-32.030;115.880;2023-03-03T00:27:01;7.57;;;1.05;;
72369;SDS011;60343;-32.030;115.880;2023-03-03T00:29:49;4.15;;;0.80;;
72369;SDS011;60343;-32.030;115.880;2023-03-03T00:32:29;6.07;;;1.15;;
72369;SDS011;60343;-32.030;115.880;2023-03-03T00:35:20;2.08;;;0.73;;
72369;SDS011;60343;-32.030;115.880;2023-03-03T00:38:01;3.10;;;1.00;;
72369;SDS011;60343;-32.030;115.880;2023-03-03T00:40:42;2.60;;;0.80;;
72369;SDS011;60343;-32.030;115.880;2023-03-03T00:43:34;4.00;;;1.08;;
72369;SDS011;60343;-32.030;115.880;2023-03-03T00:46:09;4.10;;;1.00;;
72369;SDS011;60343;-32.030;115.880;2023-03-03T00:48:49;5.07;;;1.38;;
72369;SDS011;60343;-32.030;115.880;2023-03-03T00:51:27;5.10;;;1.10;;
72369;SDS011;60343;-32.030;115.880;2023-03-03T00:54:02;4.32;;;1.17;;
72369;SDS011;60343;-32.030;115.880;2023-03-03T00:56:42;3.83;;;1.30;;
72369;SDS011;60343;-32.030;115.880;2023-03-03T00:59:39;4.53;;;1.50;;
72369;SDS011;60343;-32.030;115.880;2023-03-03T01:02:13;4.70;;;1.42;;
72369;SDS011;60343;-32.030;115.880;2023-03-03T01:04:49;6.25;;;1.20;;
72369;SDS011;60343;-32.030;115.880;2023-03-03T01:07:24;9.25;;;1.83;;
72369;SDS011;60343;-32.030;115.880;2023-03-03T01:09:59;5.25;;;1.70;;
72369;SDS011;60343;-32.030;115.880;2023-03-03T01:12:34;9.35;;;1.98;;
72369;SDS011;60343;-32.030;115.880;2023-03-03T01:15:14;4.78;;;1.40;;
72369;SDS011;60343;-32.030;115.880;2023-03-03T01:17:49;8.05;;;1.67;;
72369;SDS011;60343;-32.030;115.880;2023-03-03T01:20:23;8.10;;;1.80;;
72369;SDS011;60343;-32.030;115.880;2023-03-03T01:22:58;7.75;;;1.70;;
72369;SDS011;60343;-32.030;115.880;2023-03-03T01:25:33;4.63;;;1.30;;
72369;SDS011;60343;-32.030;115.880;2023-03-03T01:28:07;6.18;;;1.70;;
72369;SDS011;60343;-32.030;115.880;2023-03-03T01:30:48;5.45;;;1.90;;
72369;SDS011;60343;-32.030;115.880;2023-03-03T01:33:23;6.38;;;1.65;;
72369;SDS011;60343;-32.030;115.880;2023-03-03T01:35:57;5.60;;;1.60;;
72369;SDS011;60343;-32.030;115.880;2023-03-03T01:38:32;8.75;;;1.63;;
72369;SDS011;60343;-32.030;115.880;2023-03-03T01:41:08;5.60;;;1.50;;
72369;SDS011;60343;-32.030;115.880;2023-03-03T01:43:43;5.90;;;1.50;;
72369;SDS011;60343;-32.030;115.880;2023-03-03T01:46:35;6.75;;;1.50;;
72369;SDS011;60343;-32.030;115.880;2023-03-03T01:49:19;8.77;;;1.70;;
72369;SDS011;60343;-32.030;115.880;2023-03-03T01:51:59;5.63;;;2.08;;
72369;SDS011;60343;-32.030;115.880;2023-03-03T01:54:36;7.40;;;1.90;;
72369;SDS011;60343;-32.030;115.880;2023-03-03T01:57:14;7.38;;;1.70;;
72369;SDS011;60343;-32.030;115.880;2023-03-03T01:59:53;5.22;;;1.50;;
72369;SDS011;60343;-32.030;115.880;2023-03-03T02:02:37;7.22;;;1.58;;
72369;SDS011;60343;-32.030;115.880;2023-03-03T02:05:14;5.10;;;1.38;;
72369;SDS011;60343;-32.030;115.880;2023-03-03T02:07:49;5.55;;;1.10;;
72369;SDS011;60343;-32.030;115.880;2023-03-03T02:10:24;2.63;;;0.98;;
72369;SDS011;60343;-32.030;115.880;2023-03-03T02:13:00;7.00;;;1.20;;
72369;SDS011;60343;-32.030;115.880;2023-03-03T02:15:35;4.53;;;0.80;;
72369;SDS011;60343;-32.030;115.880;2023-03-03T02:18:16;4.70;;;0.93;;
72369;SDS011;60343;-32.030;115.880;2023-03-03T02:20:54;8.30;;;1.02;;
72369;SDS011;60343;-32.030;115.880;2023-03-03T02:23:35;4.47;;;1.15;;
72369;SDS011;60343;-32.030;115.880;2023-03-03T02:26:21;6.10;;;0.90;;
72369;SDS011;60343;-32.030;115.880;2023-03-03T02:28:57;3.63;;;0.73;;
72369;SDS011;60343;-32.030;115.880;2023-03-03T02:31:32;2.63;;;0.82;;
72369;SDS011;60343;-32.030;115.880;2023-03-03T02:34:08;2.95;;;0.60;;
72369;SDS011;60343;-32.030;115.880;2023-03-03T02:36:43;2.58;;;0.60;;
72369;SDS011;60343;-32.030;115.880;2023-03-03T02:39:18;3.60;;;0.80;;
72369;SDS011;60343;-32.030;115.880;2023-03-03T02:42:01;2.42;;;0.60;;
72369;SDS011;60343;-32.030;115.880;2023-03-03T02:44:40;2.47;;;0.63;;
72369;SDS011;60343;-32.030;115.880;2023-03-03T02:47:14;4.80;;;0.80;;
72369;SDS011;60343;-32.030;115.880;2023-03-03T02:49:49;2.75;;;0.90;;
72369;SDS011;60343;-32.030;115.880;2023-03-03T02:52:23;5.38;;;0.90;;
72369;SDS011;60343;-32.030;115.880;2023-03-03T02:54:58;5.72;;;0.90;;
72369;SDS011;60343;-32.030;115.880;2023-03-03T02:57:38;2.47;;;0.60;;
72369;SDS011;60343;-32.030;115.880;2023-03-03T03:00:12;3.38;;;0.50;;
72369;SDS011;60343;-32.030;115.880;2023-03-03T03:02:47;2.92;;;0.60;;
72369;SDS011;60343;-32.030;115.880;2023-03-03T03:05:21;4.32;;;0.80;;
72369;SDS011;60343;-32.030;115.880;2023-03-03T03:07:56;3.63;;;0.70;;
72369;SDS011;60343;-32.030;115.880;2023-03-03T03:10:31;6.40;;;0.95;;
72369;SDS011;60343;-32.030;115.880;2023-03-03T03:13:11;4.65;;;0.80;;
72369;SDS011;60343;-32.030;115.880;2023-03-03T03:15:45;3.85;;;0.90;;
72369;SDS011;60343;-32.030;115.880;2023-03-03T03:18:20;4.28;;;0.90;;
72369;SDS011;60343;-32.030;115.880;2023-03-03T03:20:54;4.03;;;0.77;;
72369;SDS011;60343;-32.030;115.880;2023-03-03T03:23:29;2.92;;;0.70;;
72369;SDS011;60343;-32.030;115.880;2023-03-03T03:26:03;3.00;;;0.80;;
72369;SDS011;60343;-32.030;115.880;2023-03-03T03:28:44;3.75;;;0.75;;
72369;SDS011;60343;-32.030;115.880;2023-03-03T03:31:19;2.63;;;0.50;;
72369;SDS011;60343;-32.030;115.880;2023-03-03T03:33:54;2.45;;;0.55;;
72369;SDS011;60343;-32.030;115.880;2023-03-03T03:36:28;3.55;;;0.70;;
72369;SDS011;60343;-32.030;115.880;2023-03-03T03:39:03;4.72;;;0.88;;
72369;SDS011;60343;-32.030;115.880;2023-03-03T03:41:37;8.02;;;1.08;;
72369;SDS011;60343;-32.030;115.880;2023-03-03T03:44:17;3.97;;;1.00;;
72369;SDS011;60343;-32.030;115.880;2023-03-03T03:46:52;3.40;;;0.90;;
72369;SDS011;60343;-32.030;115.880;2023-03-03T03:49:26;3.22;;;0.95;;
72369;SDS011;60343;-32.030;115.880;2023-03-03T03:52:01;5.78;;;1.05;;
72369;SDS011;60343;-32.030;115.880;2023-03-03T03:54:35;3.28;;;0.80;;
72369;SDS011;60343;-32.030;115.880;2023-03-03T03:57:10;5.55;;;1.00;;
72369;SDS011;60343;-32.030;115.880;2023-03-03T03:59:50;5.72;;;1.00;;
72369;SDS011;60343;-32.030;115.880;2023-03-03T04:02:24;3.08;;;0.80;;
72369;SDS011;60343;-32.030;115.880;2023-03-03T04:04:59;3.97;;;0.85;;
72369;SDS011;60343;-32.030;115.880;2023-03-03T04:10:44;6.43;;;0.88;;
72369;SDS011;60343;-32.030;115.880;2023-03-03T04:13:19;3.13;;;0.98;;
72369;SDS011;60343;-32.030;115.880;2023-03-03T04:15:59;3.38;;;0.88;;
72369;SDS011;60343;-32.030;115.880;2023-03-03T04:18:34;4.75;;;0.90;;
72369;SDS011;60343;-32.030;115.880;2023-03-03T04:21:10;6.15;;;0.90;;
72369;SDS011;60343;-32.030;115.880;2023-03-03T04:23:45;3.22;;;0.82;;
72369;SDS011;60343;-32.030;115.880;2023-03-03T04:26:20;2.15;;;0.70;;
72369;SDS011;60343;-32.030;115.880;2023-03-03T04:28:56;2.42;;;0.80;;
72369;SDS011;60343;-32.030;115.880;2023-03-03T04:31:36;5.20;;;0.80;;
72369;SDS011;60343;-32.030;115.880;2023-03-03T04:34:10;2.75;;;0.80;;
72369;SDS011;60343;-32.030;115.880;2023-03-03T04:36:45;4.43;;;0.52;;
72369;SDS011;60343;-32.030;115.880;2023-03-03T04:39:20;2.05;;;0.50;;
72369;SDS011;60343;-32.030;115.880;2023-03-03T04:41:54;1.65;;;0.43;;
72369;SDS011;60343;-32.030;115.880;2023-03-03T04:44:29;3.65;;;0.60;;
72369;SDS011;60343;-32.030;115.880;2023-03-03T04:47:09;2.83;;;0.60;;
72369;SDS011;60343;-32.030;115.880;2023-03-03T04:49:54;1.85;;;0.38;;
72369;SDS011;60343;-32.030;115.880;2023-03-03T04:52:29;1.77;;;0.50;;
72369;SDS011;60343;-32.030;115.880;2023-03-03T04:55:04;3.70;;;0.73;;
72369;SDS011;60343;-32.030;115.880;2023-03-03T04:57:39;0.98;;;0.40;;
72369;SDS011;60343;-32.030;115.880;2023-03-03T05:00:13;1.08;;;0.40;;
72369;SDS011;60343;-32.030;115.880;2023-03-03T05:02:54;1.40;;;0.55;;
72369;SDS011;60343;-32.030;115.880;2023-03-03T05:05:28;1.73;;;0.55;;
72369;SDS011;60343;-32.030;115.880;2023-03-03T05:08:03;3.60;;;0.60;;
72369;SDS011;60343;-32.030;115.880;2023-03-03T05:10:38;2.00;;;0.50;;
72369;SDS011;60343;-32.030;115.880;2023-03-03T05:13:13;2.95;;;0.63;;
72369;SDS011;60343;-32.030;115.880;2023-03-03T05:15:50;3.40;;;0.70;;
72369;SDS011;60343;-32.030;115.880;2023-03-03T05:18:32;1.70;;;0.52;;
72369;SDS011;60343;-32.030;115.880;2023-03-03T05:21:06;4.15;;;0.70;;
72369;SDS011;60343;-32.030;115.880;2023-03-03T05:23:41;1.50;;;0.40;;
72369;SDS011;60343;-32.030;115.880;2023-03-03T05:26:16;3.45;;;0.60;;
72369;SDS011;60343;-32.030;115.880;2023-03-03T05:28:50;2.80;;;0.60;;
72369;SDS011;60343;-32.030;115.880;2023-03-03T05:31:25;2.75;;;0.40;;
72369;SDS011;60343;-32.030;115.880;2023-03-03T05:34:05;4.05;;;0.70;;
72369;SDS011;60343;-32.030;115.880;2023-03-03T05:36:40;2.83;;;0.60;;
72369;SDS011;60343;-32.030;115.880;2023-03-03T05:39:14;3.00;;;0.70;;
72369;SDS011;60343;-32.030;115.880;2023-03-03T05:41:49;4.15;;;1.20;;
72369;SDS011;60343;-32.030;115.880;2023-03-03T05:44:25;3.35;;;0.85;;
72369;SDS011;60343;-32.030;115.880;2023-03-03T05:47:00;4.45;;;0.68;;
72369;SDS011;60343;-32.030;115.880;2023-03-03T05:49:40;2.63;;;0.98;;
72369;SDS011;60343;-32.030;115.880;2023-03-03T05:52:15;2.00;;;0.50;;
72369;SDS011;60343;-32.030;115.880;2023-03-03T05:54:49;3.67;;;0.52;;
72369;SDS011;60343;-32.030;115.880;2023-03-03T05:57:24;1.55;;;0.60;;
72369;SDS011;60343;-32.030;115.880;2023-03-03T05:59:59;4.50;;;0.80;;
72369;SDS011;60343;-32.030;115.880;2023-03-03T06:02:33;4.97;;;1.10;;
72369;SDS011;60343;-32.030;115.880;2023-03-03T06:05:15;6.55;;;1.10;;
72369;SDS011;60343;-32.030;115.880;2023-03-03T06:07:49;6.07;;;1.10;;
72369;SDS011;60343;-32.030;115.880;2023-03-03T06:10:25;8.30;;;1.00;;
72369;SDS011;60343;-32.030;115.880;2023-03-03T06:13:00;4.82;;;1.17;;
72369;SDS011;60343;-32.030;115.880;2023-03-03T06:15:34;3.67;;;0.80;;
72369;SDS011;60343;-32.030;115.880;2023-03-03T06:18:09;7.65;;;1.13;;
72369;SDS011;60343;-32.030;115.880;2023-03-03T06:20:49;4.22;;;0.98;;
72369;SDS011;60343;-32.030;115.880;2023-03-03T06:23:24;3.58;;;0.80;;
72369;SDS011;60343;-32.030;115.880;2023-03-03T06:25:59;5.20;;;0.90;;
72369;SDS011;60343;-32.030;115.880;2023-03-03T06:28:33;3.42;;;0.80;;
72369;SDS011;60343;-32.030;115.880;2023-03-03T06:31:08;3.50;;;0.82;;
72369;SDS011;60343;-32.030;115.880;2023-03-03T06:33:42;5.53;;;1.17;;
72369;SDS011;60343;-32.030;115.880;2023-03-03T06:36:22;4.00;;;1.00;;
72369;SDS011;60343;-32.030;115.880;2023-03-03T06:38:57;5.03;;;1.10;;
72369;SDS011;60343;-32.030;115.880;2023-03-03T06:41:32;7.35;;;0.95;;
72369;SDS011;60343;-32.030;115.880;2023-03-03T06:44:06;3.22;;;1.00;;
72369;SDS011;60343;-32.030;115.880;2023-03-03T06:46:41;4.05;;;0.80;;
72369;SDS011;60343;-32.030;115.880;2023-03-03T06:49:15;5.50;;;1.13;;
72369;SDS011;60343;-32.030;115.880;2023-03-03T06:51:57;7.57;;;1.02;;
72369;SDS011;60343;-32.030;115.880;2023-03-03T06:54:34;4.28;;;0.80;;
72369;SDS011;60343;-32.030;115.880;2023-03-03T06:57:14;2.95;;;0.90;;
72369;SDS011;60343;-32.030;115.880;2023-03-03T06:59:52;6.35;;;0.88;;
72369;SDS011;60343;-32.030;115.880;2023-03-03T07:02:29;3.97;;;0.80;;
72369;SDS011;60343;-32.030;115.880;2023-03-03T07:05:05;4.25;;;0.60;;
72369;SDS011;60343;-32.030;115.880;2023-03-03T07:07:50;5.18;;;0.70;;
72369;SDS011;60343;-32.030;115.880;2023-03-03T07:10:25;8.50;;;0.70;;
72369;SDS011;60343;-32.030;115.880;2023-03-03T07:13:01;4.15;;;0.80;;
72369;SDS011;60343;-32.030;115.880;2023-03-03T07:15:52;8.75;;;0.70;;
72369;SDS011;60343;-32.030;115.880;2023-03-03T07:18:34;5.13;;;0.70;;
72369;SDS011;60343;-32.030;115.880;2023-03-03T07:21:13;8.93;;;0.77;;
72369;SDS011;60343;-32.030;115.880;2023-03-03T07:23:56;5.28;;;0.70;;
72369;SDS011;60343;-32.030;115.880;2023-03-03T07:26:31;5.03;;;0.65;;
72369;SDS011;60343;-32.030;115.880;2023-03-03T07:29:12;4.10;;;0.60;;
72369;SDS011;60343;-32.030;115.880;2023-03-03T07:31:54;5.88;;;0.80;;
72369;SDS011;60343;-32.030;115.880;2023-03-03T07:34:30;6.35;;;0.98;;
72369;SDS011;60343;-32.030;115.880;2023-03-03T07:37:11;6.45;;;0.80;;
72369;SDS011;60343;-32.030;115.880;2023-03-03T07:39:55;5.20;;;0.70;;
72369;SDS011;60343;-32.030;115.880;2023-03-03T07:42:33;9.02;;;1.05;;
72369;SDS011;60343;-32.030;115.880;2023-03-03T07:45:22;7.25;;;0.98;;
72369;SDS011;60343;-32.030;115.880;2023-03-03T07:48:00;5.13;;;0.73;;
72369;SDS011;60343;-32.030;115.880;2023-03-03T07:50:41;8.32;;;1.10;;
72369;SDS011;60343;-32.030;115.880;2023-03-03T07:53:21;6.10;;;0.82;;
72369;SDS011;60343;-32.030;115.880;2023-03-03T07:56:06;3.10;;;0.73;;
72369;SDS011;60343;-32.030;115.880;2023-03-03T07:58:53;9.15;;;0.90;;
72369;SDS011;60343;-32.030;115.880;2023-03-03T08:01:34;7.22;;;0.80;;
72369;SDS011;60343;-32.030;115.880;2023-03-03T08:04:18;6.35;;;1.55;;
72369;SDS011;60343;-32.030;115.880;2023-03-03T08:06:55;5.43;;;0.93;;
72369;SDS011;60343;-32.030;115.880;2023-03-03T08:09:41;10.55;;;1.25;;
72369;SDS011;60343;-32.030;115.880;2023-03-03T08:15:20;4.57;;;0.93;;
72369;SDS011;60343;-32.030;115.880;2023-03-03T08:17:56;6.45;;;0.98;;
72369;SDS011;60343;-32.030;115.880;2023-03-03T08:20:38;8.82;;;1.13;;
72369;SDS011;60343;-32.030;115.880;2023-03-03T08:23:16;9.80;;;1.30;;
72369;SDS011;60343;-32.030;115.880;2023-03-03T08:25:51;11.25;;;1.15;;
72369;SDS011;60343;-32.030;115.880;2023-03-03T08:28:31;10.48;;;1.33;;
72369;SDS011;60343;-32.030;115.880;2023-03-03T08:31:06;6.72;;;1.13;;
72369;SDS011;60343;-32.030;115.880;2023-03-03T08:33:42;5.28;;;0.80;;
72369;SDS011;60343;-32.030;115.880;2023-03-03T08:36:17;10.35;;;1.20;;
72369;SDS011;60343;-32.030;115.880;2023-03-03T08:38:52;12.50;;;1.33;;
72369;SDS011;60343;-32.030;115.880;2023-03-03T08:41:27;7.57;;;1.13;;
72369;SDS011;60343;-32.030;115.880;2023-03-03T08:44:07;7.93;;;1.10;;
72369;SDS011;60343;-32.030;115.880;2023-03-03T08:46:42;8.95;;;0.75;;
72369;SDS011;60343;-32.030;115.880;2023-03-03T08:49:16;8.90;;;1.20;;
72369;SDS011;60343;-32.030;115.880;2023-03-03T08:51:51;7.30;;;0.98;;
72369;SDS011;60343;-32.030;115.880;2023-03-03T08:54:26;8.38;;;1.40;;
72369;SDS011;60343;-32.030;115.880;2023-03-03T08:57:01;8.75;;;0.85;;
72369;SDS011;60343;-32.030;115.880;2023-03-03T08:59:41;9.10;;;1.10;;
72369;SDS011;60343;-32.030;115.880;2023-03-03T09:02:16;8.00;;;1.65;;
72369;SDS011;60343;-32.030;115.880;2023-03-03T09:04:50;8.35;;;1.05;;
72369;SDS011;60343;-32.030;115.880;2023-03-03T09:07:25;7.22;;;0.90;;
72369;SDS011;60343;-32.030;115.880;2023-03-03T09:09:59;7.60;;;1.05;;
72369;SDS011;60343;-32.030;115.880;2023-03-03T09:12:35;5.47;;;0.93;;
72369;SDS011;60343;-32.030;115.880;2023-03-03T09:15:24;7.13;;;1.00;;
72369;SDS011;60343;-32.030;115.880;2023-03-03T09:18:01;9.05;;;1.08;;
72369;SDS011;60343;-32.030;115.880;2023-03-03T09:20:47;7.05;;;0.95;;
72369;SDS011;60343;-32.030;115.880;2023-03-03T09:23:28;8.93;;;1.17;;
72369;SDS011;60343;-32.030;115.880;2023-03-03T09:26:21;7.72;;;1.00;;
72369;SDS011;60343;-32.030;115.880;2023-03-03T09:29:00;7.45;;;1.20;;
72369;SDS011;60343;-32.030;115.880;2023-03-03T09:31:54;7.90;;;1.02;;
72369;SDS011;60343;-32.030;115.880;2023-03-03T09:34:36;11.55;;;1.02;;
72369;SDS011;60343;-32.030;115.880;2023-03-03T09:37:19;6.47;;;1.17;;
72369;SDS011;60343;-32.030;115.880;2023-03-03T09:39:54;5.93;;;1.08;;
72369;SDS011;60343;-32.030;115.880;2023-03-03T09:42:35;8.32;;;1.05;;
72369;SDS011;60343;-32.030;115.880;2023-03-03T09:45:30;7.70;;;1.10;;
72369;SDS011;60343;-32.030;115.880;2023-03-03T09:54:32;8.77;;;1.10;;
72369;SDS011;60343;-32.030;115.880;2023-03-03T10:00:03;8.60;;;1.00;;
72369;SDS011;60343;-32.030;115.880;2023-03-03T10:02:50;9.57;;;1.20;;
72369;SDS011;60343;-32.030;115.880;2023-03-03T10:05:54;5.22;;;0.95;;
72369;SDS011;60343;-32.030;115.880;2023-03-03T10:08:41;11.15;;;1.25;;
72369;SDS011;60343;-32.030;115.880;2023-03-03T10:11:27;10.45;;;1.25;;
72369;SDS011;60343;-32.030;115.880;2023-03-03T10:14:14;8.68;;;1.30;;
72369;SDS011;60343;-32.030;115.880;2023-03-03T10:17:19;11.77;;;1.38;;
72369;SDS011;60343;-32.030;115.880;2023-03-03T10:20:10;16.38;;;1.77;;
72369;SDS011;60343;-32.030;115.880;2023-03-03T10:22:59;10.32;;;1.65;;
72369;SDS011;60343;-32.030;115.880;2023-03-03T10:25:51;10.18;;;1.38;;
72369;SDS011;60343;-32.030;115.880;2023-03-03T10:28:38;10.25;;;1.20;;
72369;SDS011;60343;-32.030;115.880;2023-03-03T10:31:38;10.82;;;1.40;;
72369;SDS011;60343;-32.030;115.880;2023-03-03T10:34:28;9.93;;;1.30;;
72369;SDS011;60343;-32.030;115.880;2023-03-03T10:37:21;11.02;;;1.40;;
72369;SDS011;60343;-32.030;115.880;2023-03-03T10:40:08;8.95;;;1.13;;
72369;SDS011;60343;-32.030;115.880;2023-03-03T10:43:09;10.18;;;1.40;;
72369;SDS011;60343;-32.030;115.880;2023-03-03T10:46:00;11.60;;;1.30;;
72369;SDS011;60343;-32.030;115.880;2023-03-03T10:48:55;9.98;;;1.20;;
72369;SDS011;60343;-32.030;115.880;2023-03-03T10:51:48;10.25;;;1.42;;
72369;SDS011;60343;-32.030;115.880;2023-03-03T10:54:37;8.05;;;1.70;;
72369;SDS011;60343;-32.030;115.880;2023-03-03T10:57:28;11.13;;;1.38;;
72369;SDS011;60343;-32.030;115.880;2023-03-03T11:00:16;9.80;;;1.30;;
72369;SDS011;60343;-32.030;115.880;2023-03-03T11:06:04;7.60;;;1.20;;
72369;SDS011;60343;-32.030;115.880;2023-03-03T11:08:45;9.57;;;1.35;;
72369;SDS011;60343;-32.030;115.880;2023-03-03T11:11:28;10.68;;;1.40;;
72369;SDS011;60343;-32.030;115.880;2023-03-03T11:14:19;10.60;;;1.42;;
72369;SDS011;60343;-32.030;115.880;2023-03-03T11:17:01;10.43;;;1.70;;
72369;SDS011;60343;-32.030;115.880;2023-03-03T11:19:47;11.02;;;1.77;;
72369;SDS011;60343;-32.030;115.880;2023-03-03T11:22:37;25.45;;;5.68;;
72369;SDS011;60343;-32.030;115.880;2023-03-03T11:25:22;16.42;;;4.25;;
72369;SDS011;60343;-32.030;115.880;2023-03-03T11:28:07;18.98;;;4.20;;
72369;SDS011;60343;-32.030;115.880;2023-03-03T11:31:09;28.65;;;7.28;;
72369;SDS011;60343;-32.030;115.880;2023-03-03T11:33:55;13.38;;;3.40;;
72369;SDS011;60343;-32.030;115.880;2023-03-03T11:36:36;31.70;;;6.18;;
72369;SDS011;60343;-32.030;115.880;2023-03-03T11:39:16;29.15;;;7.43;;
72369;SDS011;60343;-32.030;115.880;2023-03-03T11:41:58;19.92;;;4.60;;
72369;SDS011;60343;-32.030;115.880;2023-03-03T11:44:43;22.92;;;5.10;;
72369;SDS011;60343;-32.030;115.880;2023-03-03T11:47:28;12.50;;;2.30;;
72369;SDS011;60343;-32.030;115.880;2023-03-03T11:50:09;10.25;;;1.30;;
72369;SDS011;60343;-32.030;115.880;2023-03-03T11:52:49;13.50;;;1.30;;
72369;SDS011;60343;-32.030;115.880;2023-03-03T11:55:29;10.35;;;1.52;;
72369;SDS011;60343;-32.030;115.880;2023-03-03T11:58:11;11.15;;;1.30;;
72369;SDS011;60343;-32.030;115.880;2023-03-03T12:00:53;6.88;;;1.30;;
72369;SDS011;60343;-32.030;115.880;2023-03-03T12:03:38;11.20;;;1.42;;
72369;SDS011;60343;-32.030;115.880;2023-03-03T12:06:19;12.00;;;1.85;;
72369;SDS011;60343;-32.030;115.880;2023-03-03T12:09:07;9.48;;;1.15;;
72369;SDS011;60343;-32.030;115.880;2023-03-03T12:11:49;13.65;;;1.70;;
72369;SDS011;60343;-32.030;115.880;2023-03-03T12:17:35;13.43;;;1.33;;
72369;SDS011;60343;-32.030;115.880;2023-03-03T12:20:30;12.25;;;1.50;;
72369;SDS011;60343;-32.030;115.880;2023-03-03T12:23:14;13.40;;;2.13;;
72369;SDS011;60343;-32.030;115.880;2023-03-03T12:26:01;13.60;;;1.92;;
72369;SDS011;60343;-32.030;115.880;2023-03-03T12:28:44;15.30;;;2.03;;
72369;SDS011;60343;-32.030;115.880;2023-03-03T12:31:30;12.93;;;1.48;;
72369;SDS011;60343;-32.030;115.880;2023-03-03T12:34:13;13.23;;;1.45;;
72369;SDS011;60343;-32.030;115.880;2023-03-03T12:37:03;12.27;;;1.73;;
72369;SDS011;60343;-32.030;115.880;2023-03-03T12:39:55;15.00;;;1.80;;
72369;SDS011;60343;-32.030;115.880;2023-03-03T12:42:39;11.85;;;1.50;;
72369;SDS011;60343;-32.030;115.880;2023-03-03T12:45:27;11.45;;;1.73;;
72369;SDS011;60343;-32.030;115.880;2023-03-03T12:48:12;14.68;;;1.92;;
72369;SDS011;60343;-32.030;115.880;2023-03-03T12:50:54;12.18;;;2.00;;
72369;SDS011;60343;-32.030;115.880;2023-03-03T12:53:45;11.63;;;1.33;;
72369;SDS011;60343;-32.030;115.880;2023-03-03T12:56:32;10.98;;;1.33;;
72369;SDS011;60343;-32.030;115.880;2023-03-03T12:59:13;12.18;;;1.98;;
72369;SDS011;60343;-32.030;115.880;2023-03-03T13:01:59;13.15;;;1.48;;
72369;SDS011;60343;-32.030;115.880;2023-03-03T13:04:48;10.60;;;1.92;;
72369;SDS011;60343;-32.030;115.880;2023-03-03T13:07:30;15.95;;;1.52;;
72369;SDS011;60343;-32.030;115.880;2023-03-03T13:10:19;11.68;;;1.83;;
72369;SDS011;60343;-32.030;115.880;2023-03-03T13:13:00;14.63;;;1.45;;
72369;SDS011;60343;-32.030;115.880;2023-03-03T13:15:43;7.57;;;1.30;;
72369;SDS011;60343;-32.030;115.880;2023-03-03T13:18:26;13.20;;;2.03;;
72369;SDS011;60343;-32.030;115.880;2023-03-03T13:23:45;11.93;;;1.30;;
72369;SDS011;60343;-32.030;115.880;2023-03-03T13:26:30;12.52;;;1.38;;
72369;SDS011;60343;-32.030;115.880;2023-03-03T13:29:10;6.78;;;1.17;;
72369;SDS011;60343;-32.030;115.880;2023-03-03T13:31:50;7.70;;;1.30;;
72369;SDS011;60343;-32.030;115.880;2023-03-03T13:34:32;9.40;;;1.65;;
72369;SDS011;60343;-32.030;115.880;2023-03-03T13:37:16;8.45;;;1.60;;
72369;SDS011;60343;-32.030;115.880;2023-03-03T13:39:56;10.35;;;1.55;;
72369;SDS011;60343;-32.030;115.880;2023-03-03T13:42:42;13.98;;;1.48;;
72369;SDS011;60343;-32.030;115.880;2023-03-03T13:45:22;11.15;;;1.83;;
72369;SDS011;60343;-32.030;115.880;2023-03-03T13:48:02;11.27;;;1.73;;
72369;SDS011;60343;-32.030;115.880;2023-03-03T13:50:47;12.23;;;1.60;;
72369;SDS011;60343;-32.030;115.880;2023-03-03T13:53:31;9.57;;;1.27;;
72369;SDS011;60343;-32.030;115.880;2023-03-03T13:56:21;11.30;;;1.90;;
72369;SDS011;60343;-32.030;115.880;2023-03-03T13:59:14;8.35;;;1.25;;
72369;SDS011;60343;-32.030;115.880;2023-03-03T14:01:58;10.73;;;1.65;;
72369;SDS011;60343;-32.030;115.880;2023-03-03T14:04:44;10.35;;;1.40;;
72369;SDS011;60343;-32.030;115.880;2023-03-03T14:07:26;10.23;;;1.35;;
72369;SDS011;60343;-32.030;115.880;2023-03-03T14:10:07;11.05;;;1.83;;
72369;SDS011;60343;-32.030;115.880;2023-03-03T14:12:53;8.82;;;1.30;;
72369;SDS011;60343;-32.030;115.880;2023-03-03T14:15:42;10.60;;;1.10;;
72369;SDS011;60343;-32.030;115.880;2023-03-03T14:18:23;10.70;;;1.13;;
72369;SDS011;60343;-32.030;115.880;2023-03-03T14:21:06;10.63;;;1.35;;
72369;SDS011;60343;-32.030;115.880;2023-03-03T14:23:49;10.10;;;1.33;;
72369;SDS011;60343;-32.030;115.880;2023-03-03T14:26:28;9.95;;;1.10;;
72369;SDS011;60343;-32.030;115.880;2023-03-03T14:29:10;5.03;;;1.20;;
72369;SDS011;60343;-32.030;115.880;2023-03-03T14:31:58;7.13;;;1.10;;
72369;SDS011;60343;-32.030;115.880;2023-03-03T14:34:35;10.18;;;1.20;;
72369;SDS011;60343;-32.030;115.880;2023-03-03T14:37:21;11.57;;;1.35;;
72369;SDS011;60343;-32.030;115.880;2023-03-03T14:40:02;10.55;;;1.70;;
72369;SDS011;60343;-32.030;115.880;2023-03-03T14:42:48;9.07;;;1.73;;
72369;SDS011;60343;-32.030;115.880;2023-03-03T14:45:30;15.55;;;1.40;;
72369;SDS011;60343;-32.030;115.880;2023-03-03T14:48:15;8.50;;;1.20;;
72369;SDS011;60343;-32.030;115.880;2023-03-03T14:50:52;6.80;;;1.58;;
72369;SDS011;60343;-32.030;115.880;2023-03-03T14:53:33;9.77;;;1.50;;
72369;SDS011;60343;-32.030;115.880;2023-03-03T14:56:17;10.07;;;1.25;;
72369;SDS011;60343;-32.030;115.880;2023-03-03T14:59:10;13.00;;;2.28;;
72369;SDS011;60343;-32.030;115.880;2023-03-03T15:01:51;9.27;;;1.20;;
72369;SDS011;60343;-32.030;115.880;2023-03-03T15:04:38;11.63;;;1.20;;
72369;SDS011;60343;-32.030;115.880;2023-03-03T15:07:22;5.75;;;1.10;;
72369;SDS011;60343;-32.030;115.880;2023-03-03T15:10:05;10.00;;;1.20;;
72369;SDS011;60343;-32.030;115.880;2023-03-03T15:12:41;11.05;;;1.27;;
72369;SDS011;60343;-32.030;115.880;2023-03-03T15:15:17;8.68;;;1.05;;
72369;SDS011;60343;-32.030;115.880;2023-03-03T15:17:56;10.73;;;1.10;;
72369;SDS011;60343;-32.030;115.880;2023-03-03T15:20:46;9.00;;;0.98;;
72369;SDS011;60343;-32.030;115.880;2023-03-03T15:23:29;9.50;;;1.02;;
72369;SDS011;60343;-32.030;115.880;2023-03-03T15:26:12;7.15;;;1.10;;
72369;SDS011;60343;-32.030;115.880;2023-03-03T15:28:54;11.00;;;0.90;;
72369;SDS011;60343;-32.030;115.880;2023-03-03T15:31:39;9.88;;;1.52;;
72369;SDS011;60343;-32.030;115.880;2023-03-03T15:34:26;8.20;;;0.90;;
72369;SDS011;60343;-32.030;115.880;2023-03-03T15:37:21;10.38;;;1.48;;
72369;SDS011;60343;-32.030;115.880;2023-03-03T15:40:10;6.65;;;1.05;;
72369;SDS011;60343;-32.030;115.880;2023-03-03T15:42:57;8.50;;;0.90;;
72369;SDS011;60343;-32.030;115.880;2023-03-03T15:45:39;11.77;;;1.30;;